Texola, Oklahoma
Current Conditions -  °F | °C
As of 11:53 PM on Tuesday 27 Jan 2015 (Local Time) from KCSM Reporting Station
Clear Clear  
Wind Chill: 51°   Ceiling: Unl
Heat Index: 51°   Visibility: 10mi
Dew Point: 39°   Wind: 14mph
Humidity: 63%   Direction: 210°SSW
Pressure: 30.08"   Gusts: NA
Location:  35.22°N, 99.99°W
Report Text: KCSM 280553Z 21012KT 10SM CLR 11/04 A3008 RMK AO2 SLP172 T01060039 10178 20106 402440067 55003
Loading
Personal Weather Stations






























Interactive Weather Map New forecast layout! Learn more

10-Day Weather Forecast

Advertisements
Track Severe Weather on mobile